sensor_id;sensor_type;location;lat;lon;timestamp;temperature;humidity
10891;DHT22;5498;50.928;11.598;2022-12-07T00:02:39;3.70;91.50
10891;DHT22;5498;50.928;11.598;2022-12-07T00:05:41;3.70;91.60
10891;DHT22;5498;50.928;11.598;2022-12-07T00:08:44;3.70;91.40
10891;DHT22;5498;50.928;11.598;2022-12-07T00:11:49;3.70;91.60
10891;DHT22;5498;50.928;11.598;2022-12-07T00:14:53;3.70;91.40
10891;DHT22;5498;50.928;11.598;2022-12-07T00:17:55;3.70;91.10
10891;DHT22;5498;50.928;11.598;2022-12-07T00:21:01;4.00;91.00
10891;DHT22;5498;50.928;11.598;2022-12-07T00:24:05;3.60;91.10
10891;DHT22;5498;50.928;11.598;2022-12-07T00:27:07;3.60;91.20
10891;DHT22;5498;50.928;11.598;2022-12-07T00:30:11;3.60;91.00
10891;DHT22;5498;50.928;11.598;2022-12-07T00:33:13;3.50;91.20
10891;DHT22;5498;50.928;11.598;2022-12-07T00:36:20;3.50;91.10
10891;DHT22;5498;50.928;11.598;2022-12-07T00:39:23;3.40;91.70
10891;DHT22;5498;50.928;11.598;2022-12-07T00:42:25;3.40;91.20
10891;DHT22;5498;50.928;11.598;2022-12-07T00:45:28;3.30;91.40
10891;DHT22;5498;50.928;11.598;2022-12-07T00:48:30;3.30;91.40
10891;DHT22;5498;50.928;11.598;2022-12-07T00:51:32;3.30;91.70
10891;DHT22;5498;50.928;11.598;2022-12-07T00:54:34;3.20;91.70
10891;DHT22;5498;50.928;11.598;2022-12-07T00:57:36;3.20;91.70
10891;DHT22;5498;50.928;11.598;2022-12-07T01:00:41;3.30;91.70
10891;DHT22;5498;50.928;11.598;2022-12-07T01:03:44;3.20;91.70
10891;DHT22;5498;50.928;11.598;2022-12-07T01:06:46;3.20;91.80
10891;DHT22;5498;50.928;11.598;2022-12-07T01:09:48;3.10;91.90
10891;DHT22;5498;50.928;11.598;2022-12-07T01:12:50;3.10;91.70
10891;DHT22;5498;50.928;11.598;2022-12-07T01:15:56;3.10;91.60
10891;DHT22;5498;50.928;11.598;2022-12-07T01:19:00;3.10;91.90
10891;DHT22;5498;50.928;11.598;2022-12-07T01:22:05;3.00;92.00
10891;DHT22;5498;50.928;11.598;2022-12-07T01:25:08;3.00;91.90
10891;DHT22;5498;50.928;11.598;2022-12-07T01:28:11;2.90;92.20
10891;DHT22;5498;50.928;11.598;2022-12-07T01:31:17;2.90;92.20
10891;DHT22;5498;50.928;11.598;2022-12-07T01:34:20;2.80;92.50
10891;DHT22;5498;50.928;11.598;2022-12-07T01:37:23;2.80;92.40
10891;DHT22;5498;50.928;11.598;2022-12-07T01:40:25;3.30;92.70
10891;DHT22;5498;50.928;11.598;2022-12-07T01:43:29;2.70;92.60
10891;DHT22;5498;50.928;11.598;2022-12-07T01:46:33;2.70;92.90
10891;DHT22;5498;50.928;11.598;2022-12-07T01:49:37;2.60;92.80
10891;DHT22;5498;50.928;11.598;2022-12-07T01:52:42;2.60;93.00
10891;DHT22;5498;50.928;11.598;2022-12-07T01:55:48;2.50;93.20
10891;DHT22;5498;50.928;11.598;2022-12-07T01:58:53;2.50;93.30
10891;DHT22;5498;50.928;11.598;2022-12-07T02:01:58;2.50;93.40
10891;DHT22;5498;50.928;11.598;2022-12-07T02:05:08;2.50;93.40
10891;DHT22;5498;50.928;11.598;2022-12-07T02:08:12;2.50;93.50
10891;DHT22;5498;50.928;11.598;2022-12-07T02:11:15;2.40;93.50
10891;DHT22;5498;50.928;11.598;2022-12-07T02:14:18;2.40;93.60
10891;DHT22;5498;50.928;11.598;2022-12-07T02:17:24;2.40;93.50
10891;DHT22;5498;50.928;11.598;2022-12-07T02:20:32;2.40;93.60
10891;DHT22;5498;50.928;11.598;2022-12-07T02:23:58;2.40;93.70
10891;DHT22;5498;50.928;11.598;2022-12-07T02:30:46;2.50;93.60
10891;DHT22;5498;50.928;11.598;2022-12-07T02:33:54;2.50;93.60
10891;DHT22;5498;50.928;11.598;2022-12-07T02:37:03;2.50;93.70
10891;DHT22;5498;50.928;11.598;2022-12-07T02:40:14;2.50;93.70
10891;DHT22;5498;50.928;11.598;2022-12-07T02:43:24;2.50;93.70
10891;DHT22;5498;50.928;11.598;2022-12-07T02:46:31;2.50;93.70
10891;DHT22;5498;50.928;11.598;2022-12-07T02:49:36;2.50;93.80
10891;DHT22;5498;50.928;11.598;2022-12-07T02:52:38;2.50;93.90
10891;DHT22;5498;50.928;11.598;2022-12-07T02:55:41;2.50;93.60
10891;DHT22;5498;50.928;11.598;2022-12-07T02:58:50;2.50;93.70
10891;DHT22;5498;50.928;11.598;2022-12-07T03:02:07;2.60;94.00
10891;DHT22;5498;50.928;11.598;2022-12-07T03:05:39;2.50;93.90
10891;DHT22;5498;50.928;11.598;2022-12-07T03:08:56;2.60;94.00
10891;DHT22;5498;50.928;11.598;2022-12-07T03:12:09;2.60;93.90
10891;DHT22;5498;50.928;11.598;2022-12-07T03:15:21;2.60;93.90
10891;DHT22;5498;50.928;11.598;2022-12-07T03:18:29;2.60;94.00
10891;DHT22;5498;50.928;11.598;2022-12-07T03:21:36;2.70;94.00
10891;DHT22;5498;50.928;11.598;2022-12-07T03:24:41;3.10;94.20
10891;DHT22;5498;50.928;11.598;2022-12-07T03:27:51;2.70;94.00
10891;DHT22;5498;50.928;11.598;2022-12-07T03:30:58;2.90;94.10
10891;DHT22;5498;50.928;11.598;2022-12-07T03:34:11;2.80;94.00
10891;DHT22;5498;50.928;11.598;2022-12-07T03:37:18;2.90;93.90
10891;DHT22;5498;50.928;11.598;2022-12-07T03:40:30;3.00;93.90
10891;DHT22;5498;50.928;11.598;2022-12-07T03:43:36;3.00;93.90
10891;DHT22;5498;50.928;11.598;2022-12-07T03:46:43;3.00;93.80
10891;DHT22;5498;50.928;11.598;2022-12-07T03:49:55;3.00;93.80
10891;DHT22;5498;50.928;11.598;2022-12-07T03:53:03;3.10;93.80
10891;DHT22;5498;50.928;11.598;2022-12-07T03:56:08;3.10;93.70
10891;DHT22;5498;50.928;11.598;2022-12-07T03:59:11;3.10;93.90
10891;DHT22;5498;50.928;11.598;2022-12-07T04:02:15;3.10;94.00
10891;DHT22;5498;50.928;11.598;2022-12-07T04:05:19;3.10;94.10
10891;DHT22;5498;50.928;11.598;2022-12-07T04:08:21;3.20;94.00
10891;DHT22;5498;50.928;11.598;2022-12-07T04:11:23;3.20;93.90
10891;DHT22;5498;50.928;11.598;2022-12-07T04:14:25;3.20;94.10
10891;DHT22;5498;50.928;11.598;2022-12-07T04:17:27;3.20;94.20
10891;DHT22;5498;50.928;11.598;2022-12-07T04:20:31;3.20;94.60
10891;DHT22;5498;50.928;11.598;2022-12-07T04:23:33;3.20;94.40
10891;DHT22;5498;50.928;11.598;2022-12-07T04:26:35;3.30;94.50
10891;DHT22;5498;50.928;11.598;2022-12-07T04:29:37;3.30;94.70
10891;DHT22;5498;50.928;11.598;2022-12-07T04:32:39;3.30;94.80
10891;DHT22;5498;50.928;11.598;2022-12-07T04:35:43;3.30;94.70
10891;DHT22;5498;50.928;11.598;2022-12-07T04:38:45;3.30;94.90
10891;DHT22;5498;50.928;11.598;2022-12-07T04:41:48;3.40;95.10
10891;DHT22;5498;50.928;11.598;2022-12-07T04:44:50;3.40;95.00
10891;DHT22;5498;50.928;11.598;2022-12-07T04:47:52;3.40;94.80
10891;DHT22;5498;50.928;11.598;2022-12-07T04:50:56;3.50;94.50
10891;DHT22;5498;50.928;11.598;2022-12-07T04:53:58;3.50;94.70
10891;DHT22;5498;50.928;11.598;2022-12-07T04:57:00;3.50;94.40
10891;DHT22;5498;50.928;11.598;2022-12-07T05:00:02;3.50;94.40
10891;DHT22;5498;50.928;11.598;2022-12-07T05:03:05;3.50;94.50
10891;DHT22;5498;50.928;11.598;2022-12-07T05:06:10;3.50;94.40
10891;DHT22;5498;50.928;11.598;2022-12-07T05:09:12;3.50;94.70
10891;DHT22;5498;50.928;11.598;2022-12-07T05:12:14;3.50;94.60
10891;DHT22;5498;50.928;11.598;2022-12-07T05:15:17;3.60;94.60
10891;DHT22;5498;50.928;11.598;2022-12-07T05:18:19;3.60;94.60
10891;DHT22;5498;50.928;11.598;2022-12-07T05:21:25;3.60;94.70
10891;DHT22;5498;50.928;11.598;2022-12-07T05:24:27;3.60;94.90
10891;DHT22;5498;50.928;11.598;2022-12-07T05:27:29;3.60;94.60
10891;DHT22;5498;50.928;11.598;2022-12-07T05:30:31;3.70;94.70
10891;DHT22;5498;50.928;11.598;2022-12-07T05:33:34;3.70;94.80
10891;DHT22;5498;50.928;11.598;2022-12-07T05:36:37;3.70;94.80
10891;DHT22;5498;50.928;11.598;2022-12-07T05:39:39;3.70;94.90
10891;DHT22;5498;50.928;11.598;2022-12-07T05:42:43;3.90;94.90
10891;DHT22;5498;50.928;11.598;2022-12-07T05:45:45;3.30;94.70
10891;DHT22;5498;50.928;11.598;2022-12-07T05:48:47;3.50;94.70
10891;DHT22;5498;50.928;11.598;2022-12-07T05:51:50;3.80;94.90
10891;DHT22;5498;50.928;11.598;2022-12-07T05:54:52;3.80;94.80
10891;DHT22;5498;50.928;11.598;2022-12-07T05:57:54;3.90;94.80
10891;DHT22;5498;50.928;11.598;2022-12-07T06:01:16;3.90;94.90
10891;DHT22;5498;50.928;11.598;2022-12-07T06:04:19;3.90;94.80
10891;DHT22;5498;50.928;11.598;2022-12-07T06:07:22;4.00;95.00
10891;DHT22;5498;50.928;11.598;2022-12-07T06:10:24;4.00;94.80
10891;DHT22;5498;50.928;11.598;2022-12-07T06:13:26;4.00;94.80
10891;DHT22;5498;50.928;11.598;2022-12-07T06:16:27;4.00;94.70
10891;DHT22;5498;50.928;11.598;2022-12-07T06:19:29;4.10;94.80
10891;DHT22;5498;50.928;11.598;2022-12-07T06:22:33;4.10;95.00
10891;DHT22;5498;50.928;11.598;2022-12-07T06:25:35;4.10;94.90
10891;DHT22;5498;50.928;11.598;2022-12-07T06:28:37;4.20;95.00
10891;DHT22;5498;50.928;11.598;2022-12-07T06:31:39;4.20;95.00
10891;DHT22;5498;50.928;11.598;2022-12-07T06:34:41;4.20;95.20
10891;DHT22;5498;50.928;11.598;2022-12-07T06:37:45;4.20;95.20
10891;DHT22;5498;50.928;11.598;2022-12-07T06:40:47;4.30;95.20
10891;DHT22;5498;50.928;11.598;2022-12-07T06:43:50;4.30;95.20
10891;DHT22;5498;50.928;11.598;2022-12-07T06:46:52;4.30;95.30
10891;DHT22;5498;50.928;11.598;2022-12-07T06:49:55;4.70;95.40
10891;DHT22;5498;50.928;11.598;2022-12-07T06:52:58;4.30;95.10
10891;DHT22;5498;50.928;11.598;2022-12-07T06:56:00;4.40;95.20
10891;DHT22;5498;50.928;11.598;2022-12-07T06:59:03;4.40;95.20
10891;DHT22;5498;50.928;11.598;2022-12-07T07:02:06;4.40;95.30
10891;DHT22;5498;50.928;11.598;2022-12-07T07:05:09;4.40;95.20
10891;DHT22;5498;50.928;11.598;2022-12-07T07:08:12;4.40;95.10
10891;DHT22;5498;50.928;11.598;2022-12-07T07:11:14;4.30;95.30
10891;DHT22;5498;50.928;11.598;2022-12-07T07:14:16;4.30;95.20
10891;DHT22;5498;50.928;11.598;2022-12-07T07:17:19;4.30;95.20
10891;DHT22;5498;50.928;11.598;2022-12-07T07:20:21;4.40;95.20
10891;DHT22;5498;50.928;11.598;2022-12-07T07:23:25;4.40;95.10
10891;DHT22;5498;50.928;11.598;2022-12-07T07:26:27;4.40;95.00
10891;DHT22;5498;50.928;11.598;2022-12-07T07:29:29;4.60;94.90
10891;DHT22;5498;50.928;11.598;2022-12-07T07:32:31;4.50;94.70
10891;DHT22;5498;50.928;11.598;2022-12-07T07:35:34;4.50;94.70
10891;DHT22;5498;50.928;11.598;2022-12-07T07:38:37;4.60;94.70
10891;DHT22;5498;50.928;11.598;2022-12-07T07:41:39;4.50;94.70
10891;DHT22;5498;50.928;11.598;2022-12-07T07:44:41;4.50;94.60
10891;DHT22;5498;50.928;11.598;2022-12-07T07:47:44;4.50;94.50
10891;DHT22;5498;50.928;11.598;2022-12-07T07:50:46;4.50;94.50
10891;DHT22;5498;50.928;11.598;2022-12-07T07:53:49;4.60;94.50
10891;DHT22;5498;50.928;11.598;2022-12-07T07:56:52;4.60;94.50
10891;DHT22;5498;50.928;11.598;2022-12-07T07:59:54;5.00;94.70
10891;DHT22;5498;50.928;11.598;2022-12-07T08:02:56;4.60;94.40
10891;DHT22;5498;50.928;11.598;2022-12-07T08:05:58;4.60;94.40
10891;DHT22;5498;50.928;11.598;2022-12-07T08:09:02;4.60;94.50
10891;DHT22;5498;50.928;11.598;2022-12-07T08:12:06;4.70;94.60
10891;DHT22;5498;50.928;11.598;2022-12-07T08:15:09;4.80;94.40
10891;DHT22;5498;50.928;11.598;2022-12-07T08:18:12;4.80;94.30
10891;DHT22;5498;50.928;11.598;2022-12-07T08:21:15;4.80;94.20
10891;DHT22;5498;50.928;11.598;2022-12-07T08:24:19;4.90;94.00
10891;DHT22;5498;50.928;11.598;2022-12-07T08:27:21;4.90;93.90
10891;DHT22;5498;50.928;11.598;2022-12-07T08:30:28;5.00;93.70
10891;DHT22;5498;50.928;11.598;2022-12-07T08:33:30;5.00;93.80
10891;DHT22;5498;50.928;11.598;2022-12-07T08:36:32;5.00;93.50
10891;DHT22;5498;50.928;11.598;2022-12-07T08:39:36;5.00;93.50
10891;DHT22;5498;50.928;11.598;2022-12-07T08:42:38;5.50;93.50
10891;DHT22;5498;50.928;11.598;2022-12-07T08:45:40;5.20;93.40
10891;DHT22;5498;50.928;11.598;2022-12-07T08:48:46;5.10;93.50
10891;DHT22;5498;50.928;11.598;2022-12-07T08:51:52;5.10;93.70
10891;DHT22;5498;50.928;11.598;2022-12-07T08:54:59;5.10;93.50
10891;DHT22;5498;50.928;11.598;2022-12-07T08:58:02;5.20;93.60
10891;DHT22;5498;50.928;11.598;2022-12-07T09:01:05;5.30;93.50
10891;DHT22;5498;50.928;11.598;2022-12-07T09:04:07;5.30;93.30
10891;DHT22;5498;50.928;11.598;2022-12-07T09:07:09;5.90;93.30
10891;DHT22;5498;50.928;11.598;2022-12-07T09:10:13;5.60;93.20
10891;DHT22;5498;50.928;11.598;2022-12-07T09:13:15;5.50;93.30
10891;DHT22;5498;50.928;11.598;2022-12-07T09:16:17;6.00;93.10
10891;DHT22;5498;50.928;11.598;2022-12-07T09:19:19;5.50;92.70
10891;DHT22;5498;50.928;11.598;2022-12-07T09:22:21;6.00;92.90
10891;DHT22;5498;50.928;11.598;2022-12-07T09:25:25;5.60;92.70
10891;DHT22;5498;50.928;11.598;2022-12-07T09:28:27;5.60;92.60
10891;DHT22;5498;50.928;11.598;2022-12-07T09:31:29;5.60;92.60
10891;DHT22;5498;50.928;11.598;2022-12-07T09:34:32;5.70;92.50
10891;DHT22;5498;50.928;11.598;2022-12-07T09:37:34;5.70;92.60
10891;DHT22;5498;50.928;11.598;2022-12-07T09:40:38;6.20;92.50
10891;DHT22;5498;50.928;11.598;2022-12-07T09:43:40;6.20;92.70
10891;DHT22;5498;50.928;11.598;2022-12-07T09:46:43;5.80;92.50
10891;DHT22;5498;50.928;11.598;2022-12-07T09:49:46;5.80;92.50
10891;DHT22;5498;50.928;11.598;2022-12-07T09:52:49;5.80;92.60
10891;DHT22;5498;50.928;11.598;2022-12-07T09:55:53;5.90;92.60
10891;DHT22;5498;50.928;11.598;2022-12-07T09:58:59;6.20;92.60
10891;DHT22;5498;50.928;11.598;2022-12-07T10:02:25;6.10;92.50
10891;DHT22;5498;50.928;11.598;2022-12-07T10:05:37;6.10;92.20
10891;DHT22;5498;50.928;11.598;2022-12-07T10:08:42;6.30;92.10
10891;DHT22;5498;50.928;11.598;2022-12-07T10:12:03;6.20;91.70
10891;DHT22;5498;50.928;11.598;2022-12-07T10:15:07;6.20;91.90
10891;DHT22;5498;50.928;11.598;2022-12-07T10:18:20;6.40;91.90
10891;DHT22;5498;50.928;11.598;2022-12-07T10:21:27;6.50;91.50
10891;DHT22;5498;50.928;11.598;2022-12-07T10:24:29;6.60;91.00
10891;DHT22;5498;50.928;11.598;2022-12-07T10:27:33;6.60;90.90
10891;DHT22;5498;50.928;11.598;2022-12-07T10:30:47;6.60;90.80
10891;DHT22;5498;50.928;11.598;2022-12-07T10:33:52;6.60;91.10
10891;DHT22;5498;50.928;11.598;2022-12-07T10:37:14;6.60;90.90
10891;DHT22;5498;50.928;11.598;2022-12-07T10:40:30;6.60;90.70
10891;DHT22;5498;50.928;11.598;2022-12-07T10:43:35;6.70;90.80
10891;DHT22;5498;50.928;11.598;2022-12-07T10:47:03;6.80;90.30
10891;DHT22;5498;50.928;11.598;2022-12-07T10:50:31;6.80;90.40
10891;DHT22;5498;50.928;11.598;2022-12-07T10:53:48;6.80;90.50
10891;DHT22;5498;50.928;11.598;2022-12-07T10:57:13;7.00;90.50
10891;DHT22;5498;50.928;11.598;2022-12-07T11:00:39;6.70;90.40
10891;DHT22;5498;50.928;11.598;2022-12-07T11:03:55;6.60;90.20
10891;DHT22;5498;50.928;11.598;2022-12-07T11:07:14;6.60;90.50
10891;DHT22;5498;50.928;11.598;2022-12-07T11:10:28;6.70;90.50
10891;DHT22;5498;50.928;11.598;2022-12-07T11:13:40;7.20;90.50
10891;DHT22;5498;50.928;11.598;2022-12-07T11:16:55;6.80;90.50
10891;DHT22;5498;50.928;11.598;2022-12-07T11:20:05;6.90;90.00
10891;DHT22;5498;50.928;11.598;2022-12-07T11:23:30;7.00;89.90
10891;DHT22;5498;50.928;11.598;2022-12-07T11:26:58;7.20;89.90
10891;DHT22;5498;50.928;11.598;2022-12-07T11:30:14;7.40;89.60
10891;DHT22;5498;50.928;11.598;2022-12-07T11:33:29;7.60;89.20
10891;DHT22;5498;50.928;11.598;2022-12-07T11:36:37;7.70;88.60
10891;DHT22;5498;50.928;11.598;2022-12-07T11:39:46;7.70;87.90
10891;DHT22;5498;50.928;11.598;2022-12-07T11:42:53;7.70;88.00
10891;DHT22;5498;50.928;11.598;2022-12-07T11:46:02;8.20;88.30
10891;DHT22;5498;50.928;11.598;2022-12-07T11:49:13;7.80;87.70
10891;DHT22;5498;50.928;11.598;2022-12-07T11:52:22;7.90;87.70
10891;DHT22;5498;50.928;11.598;2022-12-07T11:55:32;8.00;87.30
10891;DHT22;5498;50.928;11.598;2022-12-07T11:58:48;8.10;87.00
10891;DHT22;5498;50.928;11.598;2022-12-07T12:01:55;8.20;85.90
10891;DHT22;5498;50.928;11.598;2022-12-07T12:05:07;8.70;85.70
10891;DHT22;5498;50.928;11.598;2022-12-07T12:08:18;8.30;85.30
10891;DHT22;5498;50.928;11.598;2022-12-07T12:11:39;8.30;84.90
10891;DHT22;5498;50.928;11.598;2022-12-07T12:15:01;8.20;84.70
10891;DHT22;5498;50.928;11.598;2022-12-07T12:18:32;8.10;84.30
10891;DHT22;5498;50.928;11.598;2022-12-07T12:21:49;8.10;84.70
10891;DHT22;5498;50.928;11.598;2022-12-07T12:24:57;7.90;84.70
10891;DHT22;5498;50.928;11.598;2022-12-07T12:28:01;7.80;84.10
10891;DHT22;5498;50.928;11.598;2022-12-07T12:31:09;7.80;84.40
10891;DHT22;5498;50.928;11.598;2022-12-07T12:34:31;7.70;84.90
10891;DHT22;5498;50.928;11.598;2022-12-07T12:37:42;7.90;84.40
10891;DHT22;5498;50.928;11.598;2022-12-07T12:40:46;7.50;85.10
10891;DHT22;5498;50.928;11.598;2022-12-07T12:43:51;7.40;85.10
10891;DHT22;5498;50.928;11.598;2022-12-07T12:46:54;7.70;86.40
10891;DHT22;5498;50.928;11.598;2022-12-07T12:50:16;7.30;86.60
10891;DHT22;5498;50.928;11.598;2022-12-07T12:53:23;7.20;86.70
10891;DHT22;5498;50.928;11.598;2022-12-07T12:56:37;7.20;86.60
10891;DHT22;5498;50.928;11.598;2022-12-07T12:59:42;7.10;86.90
10891;DHT22;5498;50.928;11.598;2022-12-07T13:02:59;7.10;86.10
10891;DHT22;5498;50.928;11.598;2022-12-07T13:06:18;7.10;88.10
10891;DHT22;5498;50.928;11.598;2022-12-07T13:09:26;6.80;89.20
10891;DHT22;5498;50.928;11.598;2022-12-07T13:12:30;6.70;90.00
10891;DHT22;5498;50.928;11.598;2022-12-07T13:15:35;6.70;90.50
10891;DHT22;5498;50.928;11.598;2022-12-07T13:18:39;6.90;90.90
10891;DHT22;5498;50.928;11.598;2022-12-07T13:21:42;7.00;90.90
10891;DHT22;5498;50.928;11.598;2022-12-07T13:24:47;6.60;90.90
10891;DHT22;5498;50.928;11.598;2022-12-07T13:27:56;6.30;90.60
10891;DHT22;5498;50.928;11.598;2022-12-07T13:31:30;6.20;90.90
10891;DHT22;5498;50.928;11.598;2022-12-07T13:34:36;6.40;91.20
10891;DHT22;5498;50.928;11.598;2022-12-07T13:37:39;6.30;91.20
10891;DHT22;5498;50.928;11.598;2022-12-07T13:40:42;6.00;90.70
10891;DHT22;5498;50.928;11.598;2022-12-07T13:43:48;6.00;90.90
10891;DHT22;5498;50.928;11.598;2022-12-07T13:46:57;6.00;91.10
10891;DHT22;5498;50.928;11.598;2022-12-07T13:50:23;5.90;91.20
10891;DHT22;5498;50.928;11.598;2022-12-07T13:53:26;5.80;91.10
10891;DHT22;5498;50.928;11.598;2022-12-07T13:56:34;5.80;91.20
10891;DHT22;5498;50.928;11.598;2022-12-07T13:59:37;5.70;91.20
10891;DHT22;5498;50.928;11.598;2022-12-07T14:02:55;5.70;91.30
10891;DHT22;5498;50.928;11.598;2022-12-07T14:06:16;5.60;91.50
10891;DHT22;5498;50.928;11.598;2022-12-07T14:09:21;5.60;91.50
10891;DHT22;5498;50.928;11.598;2022-12-07T14:12:27;5.50;91.40
10891;DHT22;5498;50.928;11.598;2022-12-07T14:15:32;5.50;91.40
10891;DHT22;5498;50.928;11.598;2022-12-07T14:18:37;5.90;91.50
10891;DHT22;5498;50.928;11.598;2022-12-07T14:21:41;5.50;91.50
10891;DHT22;5498;50.928;11.598;2022-12-07T14:24:44;5.50;91.10
10891;DHT22;5498;50.928;11.598;2022-12-07T14:27:56;5.50;91.40
10891;DHT22;5498;50.928;11.598;2022-12-07T14:30:59;5.40;91.50
10891;DHT22;5498;50.928;11.598;2022-12-07T14:34:02;5.50;91.20
10891;DHT22;5498;50.928;11.598;2022-12-07T14:37:07;5.50;90.80
10891;DHT22;5498;50.928;11.598;2022-12-07T14:40:13;5.50;91.10
10891;DHT22;5498;50.928;11.598;2022-12-07T14:43:18;5.50;91.10
10891;DHT22;5498;50.928;11.598;2022-12-07T14:46:21;5.40;91.00
10891;DHT22;5498;50.928;11.598;2022-12-07T14:49:23;5.40;90.90
10891;DHT22;5498;50.928;11.598;2022-12-07T14:52:28;5.40;91.20
10891;DHT22;5498;50.928;11.598;2022-12-07T14:55:31;5.80;91.50
10891;DHT22;5498;50.928;11.598;2022-12-07T14:58:35;5.40;91.40
10891;DHT22;5498;50.928;11.598;2022-12-07T15:01:37;5.40;91.20
10891;DHT22;5498;50.928;11.598;2022-12-07T15:04:40;5.80;91.60
10891;DHT22;5498;50.928;11.598;2022-12-07T15:07:43;5.30;91.30
10891;DHT22;5498;50.928;11.598;2022-12-07T15:10:45;5.30;91.30
10891;DHT22;5498;50.928;11.598;2022-12-07T15:13:49;5.20;91.40
10891;DHT22;5498;50.928;11.598;2022-12-07T15:17:10;5.20;91.50
10891;DHT22;5498;50.928;11.598;2022-12-07T15:20:15;5.20;91.90
10891;DHT22;5498;50.928;11.598;2022-12-07T15:23:18;5.10;91.90
10891;DHT22;5498;50.928;11.598;2022-12-07T15:26:20;5.10;92.00
10891;DHT22;5498;50.928;11.598;2022-12-07T15:29:23;5.10;91.90
10891;DHT22;5498;50.928;11.598;2022-12-07T15:32:25;5.00;91.70
10891;DHT22;5498;50.928;11.598;2022-12-07T15:35:27;5.00;91.80
10891;DHT22;5498;50.928;11.598;2022-12-07T15:38:29;4.90;91.60
10891;DHT22;5498;50.928;11.598;2022-12-07T15:41:31;4.90;91.60
10891;DHT22;5498;50.928;11.598;2022-12-07T15:44:35;4.90;91.40
10891;DHT22;5498;50.928;11.598;2022-12-07T15:47:54;4.90;91.30
10891;DHT22;5498;50.928;11.598;2022-12-07T15:51:02;4.80;91.40
10891;DHT22;5498;50.928;11.598;2022-12-07T15:54:05;4.80;91.60
10891;DHT22;5498;50.928;11.598;2022-12-07T15:57:07;4.80;91.40
10891;DHT22;5498;50.928;11.598;2022-12-07T16:00:12;4.80;91.40
10891;DHT22;5498;50.928;11.598;2022-12-07T16:03:15;4.80;91.60
10891;DHT22;5498;50.928;11.598;2022-12-07T16:06:17;4.80;91.40
10891;DHT22;5498;50.928;11.598;2022-12-07T16:09:19;4.80;91.60
10891;DHT22;5498;50.928;11.598;2022-12-07T16:12:22;4.80;91.60
10891;DHT22;5498;50.928;11.598;2022-12-07T16:15:26;4.80;91.50
10891;DHT22;5498;50.928;11.598;2022-12-07T16:18:28;4.80;91.50
10891;DHT22;5498;50.928;11.598;2022-12-07T16:21:30;4.80;91.40
10891;DHT22;5498;50.928;11.598;2022-12-07T16:24:32;4.80;91.30
10891;DHT22;5498;50.928;11.598;2022-12-07T16:27:35;4.80;91.20
10891;DHT22;5498;50.928;11.598;2022-12-07T16:30:38;4.80;91.20
10891;DHT22;5498;50.928;11.598;2022-12-07T16:33:42;4.70;91.20
10891;DHT22;5498;50.928;11.598;2022-12-07T16:36:45;4.70;91.50
10891;DHT22;5498;50.928;11.598;2022-12-07T16:39:47;4.70;91.40
10891;DHT22;5498;50.928;11.598;2022-12-07T16:42:49;4.70;91.40
10891;DHT22;5498;50.928;11.598;2022-12-07T16:45:52;4.70;91.60
10891;DHT22;5498;50.928;11.598;2022-12-07T16:48:55;4.70;91.70
10891;DHT22;5498;50.928;11.598;2022-12-07T16:51:59;4.70;91.70
10891;DHT22;5498;50.928;11.598;2022-12-07T16:55:01;4.70;91.70
10891;DHT22;5498;50.928;11.598;2022-12-07T16:58:04;4.70;91.70
10891;DHT22;5498;50.928;11.598;2022-12-07T17:01:12;4.70;91.70
10891;DHT22;5498;50.928;11.598;2022-12-07T17:04:16;4.70;91.70
10891;DHT22;5498;50.928;11.598;2022-12-07T17:07:21;4.70;91.40
10891;DHT22;5498;50.928;11.598;2022-12-07T17:10:23;4.70;91.40
10891;DHT22;5498;50.928;11.598;2022-12-07T17:13:26;4.70;91.50
10891;DHT22;5498;50.928;11.598;2022-12-07T17:16:47;4.70;91.50
10891;DHT22;5498;50.928;11.598;2022-12-07T17:19:49;4.70;90.90
10891;DHT22;5498;50.928;11.598;2022-12-07T17:22:51;4.70;91.50
10891;DHT22;5498;50.928;11.598;2022-12-07T17:25:54;4.70;91.90
10891;DHT22;5498;50.928;11.598;2022-12-07T17:28:56;4.70;91.40
10891;DHT22;5498;50.928;11.598;2022-12-07T17:32:00;4.70;91.70
10891;DHT22;5498;50.928;11.598;2022-12-07T17:35:02;4.70;91.50
10891;DHT22;5498;50.928;11.598;2022-12-07T17:38:04;4.60;91.70
10891;DHT22;5498;50.928;11.598;2022-12-07T17:41:10;4.60;91.60
10891;DHT22;5498;50.928;11.598;2022-12-07T17:44:33;4.60;91.80
10891;DHT22;5498;50.928;11.598;2022-12-07T17:47:37;4.60;91.60
10891;DHT22;5498;50.928;11.598;2022-12-07T17:50:40;4.60;91.80
10891;DHT22;5498;50.928;11.598;2022-12-07T17:53:59;4.60;91.80
10891;DHT22;5498;50.928;11.598;2022-12-07T17:57:02;4.60;91.60
10891;DHT22;5498;50.928;11.598;2022-12-07T18:00:05;4.70;91.60
10891;DHT22;5498;50.928;11.598;2022-12-07T18:03:09;4.70;91.50
10891;DHT22;5498;50.928;11.598;2022-12-07T18:06:11;4.70;91.30
10891;DHT22;5498;50.928;11.598;2022-12-07T18:09:13;4.70;91.20
10891;DHT22;5498;50.928;11.598;2022-12-07T18:12:16;4.70;91.20
10891;DHT22;5498;50.928;11.598;2022-12-07T18:15:18;4.70;91.20
10891;DHT22;5498;50.928;11.598;2022-12-07T18:18:23;4.70;91.10
10891;DHT22;5498;50.928;11.598;2022-12-07T18:21:26;4.70;91.20
10891;DHT22;5498;50.928;11.598;2022-12-07T18:24:30;4.60;91.40
10891;DHT22;5498;50.928;11.598;2022-12-07T18:27:32;4.60;91.30
10891;DHT22;5498;50.928;11.598;2022-12-07T18:30:34;4.90;91.20
10891;DHT22;5498;50.928;11.598;2022-12-07T18:33:38;4.60;91.10
10891;DHT22;5498;50.928;11.598;2022-12-07T18:36:43;4.80;91.30
10891;DHT22;5498;50.928;11.598;2022-12-07T18:39:46;5.00;91.40
10891;DHT22;5498;50.928;11.598;2022-12-07T18:42:49;4.60;91.10
10891;DHT22;5498;50.928;11.598;2022-12-07T18:45:52;4.60;91.20
10891;DHT22;5498;50.928;11.598;2022-12-07T18:48:55;4.60;91.40
10891;DHT22;5498;50.928;11.598;2022-12-07T18:51:57;4.60;91.30
10891;DHT22;5498;50.928;11.598;2022-12-07T18:54:59;4.60;91.30
10891;DHT22;5498;50.928;11.598;2022-12-07T18:58:03;4.60;91.20
10891;DHT22;5498;50.928;11.598;2022-12-07T19:01:05;4.60;91.30
10891;DHT22;5498;50.928;11.598;2022-12-07T19:04:09;4.60;91.10
10891;DHT22;5498;50.928;11.598;2022-12-07T19:07:11;4.60;91.30
10891;DHT22;5498;50.928;11.598;2022-12-07T19:10:14;4.60;91.30
10891;DHT22;5498;50.928;11.598;2022-12-07T19:13:16;4.60;91.20
10891;DHT22;5498;50.928;11.598;2022-12-07T19:16:18;4.60;91.10
10891;DHT22;5498;50.928;11.598;2022-12-07T19:19:23;4.60;91.40
10891;DHT22;5498;50.928;11.598;2022-12-07T19:22:29;4.60;91.30
10891;DHT22;5498;50.928;11.598;2022-12-07T19:25:32;4.60;91.10
10891;DHT22;5498;50.928;11.598;2022-12-07T19:28:34;4.60;91.10
10891;DHT22;5498;50.928;11.598;2022-12-07T19:31:36;4.60;91.00
10891;DHT22;5498;50.928;11.598;2022-12-07T19:34:42;4.50;91.20
10891;DHT22;5498;50.928;11.598;2022-12-07T19:37:44;4.50;91.30
10891;DHT22;5498;50.928;11.598;2022-12-07T19:40:46;4.60;91.10
10891;DHT22;5498;50.928;11.598;2022-12-07T19:43:48;4.50;91.40
10891;DHT22;5498;50.928;11.598;2022-12-07T19:46:52;4.50;91.20
10891;DHT22;5498;50.928;11.598;2022-12-07T19:49:57;4.50;91.40
10891;DHT22;5498;50.928;11.598;2022-12-07T19:52:59;4.40;91.30
10891;DHT22;5498;50.928;11.598;2022-12-07T19:56:01;4.50;91.40